Terminal Aerodrome Forecast
Issued by NWS Boise, ID

Home | Current Version | Previous Version | Text Only | Print | Product List | Glossary On
Versions: 1 2 3 4 5 6 7 8 9 10 11 12 13 14 15 16 17 18 19 20 21 22 23 24 25 26 27 28 29 30 31 32 33 34
000
FTUS45 KBOI 071720
TAFBOI
TAF
KBOI 071720Z 0718/0818 VRB03KT P6SM FEW050
      TEMPO 0718/0720 5SM BR
     FM080400 VRB03KT 6SM BR SKC
     FM080600 VRB03KT 3SM BR SCT005
     FM081200 VRB03KT 3/4SM BR OVC002=

USA.gov is the U.S. government's official web portal to all federal, state and local government web resources and services.